Time;durP1;ratioP1;P1;durP2;ratioP2;P2;SDS_P1;SDS_P2;PMS_P1;PMS_P2;Temp;Humidity;BMP_temperature;BMP_pressure;BME280_temperature;BME280_humidity;BME280_pressure;Samples;Min_cycle;Max_cycle;Signal;HPM_P1;HPM_P2
2021/04/25 00:01:30;;;;;;;2.33;1.65;;;;;;;21.00;51.93;101203.48;1670146;83;21224;-61
2021/04/25 00:03:56;;;;;;;2.00;1.50;;;;;;;21.00;51.92;101204.86;1670703;83;21186;-61
2021/04/25 00:06:23;;;;;;;2.95;1.70;;;;;;;20.97;51.89;101200.75;1674527;83;21241;-61
2021/04/25 00:08:49;;;;;;;2.40;1.72;;;;;;;20.97;51.88;101196.59;1673824;83;21170;-60
2021/04/25 00:11:15;;;;;;;3.15;1.90;;;;;;;20.97;51.87;101201.31;1674444;83;21214;-60
2021/04/25 00:13:43;;;;;;;2.02;1.57;;;;;;;20.96;51.83;101192.78;1674632;83;21223;-60
2021/04/25 00:16:11;;;;;;;2.58;1.80;;;;;;;20.94;51.81;101192.26;1678415;83;21182;-61
2021/04/25 00:18:38;;;;;;;2.75;1.77;;;;;;;20.93;51.81;101196.14;1685675;84;21601;-61
2021/04/25 00:21:05;;;;;;;2.70;1.62;;;;;;;20.92;51.79;101193.12;1669333;83;21206;-61
2021/04/25 00:23:32;;;;;;;3.17;1.60;;;;;;;20.90;51.77;101197.59;1641998;85;21188;-61
2021/04/25 00:25:58;;;;;;;2.20;1.47;;;;;;;20.90;51.77;101187.91;1678052;83;21255;-60
2021/04/25 00:28:24;;;;;;;3.10;1.70;;;;;;;20.89;51.74;101193.75;1675190;84;21189;-60
2021/04/25 00:30:51;;;;;;;2.20;1.52;;;;;;;20.88;51.73;101197.07;1672097;84;21155;-61
2021/04/25 00:33:17;;;;;;;2.00;1.47;;;;;;;20.88;51.73;101196.25;1670992;84;21155;-61
2021/04/25 00:35:44;;;;;;;1.90;1.45;;;;;;;20.87;51.72;101200.17;1670359;84;21166;-61
2021/04/25 00:38:10;;;;;;;1.95;1.50;;;;;;;20.86;51.73;101202.11;1669919;84;21177;-61
2021/04/25 00:40:37;;;;;;;3.42;1.65;;;;;;;20.86;51.71;101199.34;1668876;84;21230;-61
2021/04/25 00:43:03;;;;;;;2.47;1.17;;;;;;;20.85;51.67;101199.08;1668614;83;21261;-60
2021/04/25 00:45:30;;;;;;;2.87;1.85;;;;;;;20.84;51.67;101197.44;1672123;84;21211;-60
2021/04/25 00:47:56;;;;;;;2.30;1.52;;;;;;;20.84;51.63;101195.23;1669207;84;21242;-61
2021/04/25 00:50:25;;;;;;;2.50;1.77;;;;;;;20.82;51.64;101191.97;1669481;83;21228;-61
2021/04/25 00:52:56;;;;;;;2.40;1.35;;;;;;;20.82;51.61;101192.80;1669772;84;21594;-62
2021/04/25 00:55:28;;;;;;;2.37;1.40;;;;;;;20.80;51.58;101194.22;1671335;84;21585;-61
2021/04/25 00:57:56;;;;;;;2.17;1.65;;;;;;;20.79;51.58;101192.60;1669915;84;21171;-62
2021/04/25 01:00:23;;;;;;;2.60;1.32;;;;;;;20.78;51.57;101195.11;1673345;84;21101;-61
2021/04/25 01:02:49;;;;;;;2.20;1.70;;;;;;;20.77;51.55;101195.67;1669396;84;22168;-61
2021/04/25 01:05:17;;;;;;;2.12;1.40;;;;;;;20.76;51.53;101196.79;1672374;83;21218;-61
2021/04/25 01:07:44;;;;;;;3.10;1.60;;;;;;;20.76;51.54;101189.87;1670440;84;21616;-61
2021/04/25 01:10:12;;;;;;;2.25;1.42;;;;;;;20.76;51.52;101187.11;1668423;84;21146;-60
2021/04/25 01:12:39;;;;;;;2.42;1.57;;;;;;;20.75;51.52;101189.61;1670503;83;21260;-61
2021/04/25 01:15:07;;;;;;;5.00;1.72;;;;;;;20.75;51.51;101188.82;1671588;84;21221;-59
2021/04/25 01:17:33;;;;;;;2.55;1.35;;;;;;;20.74;51.49;101192.15;1669925;84;21212;-60
2021/04/25 01:20:00;;;;;;;3.10;1.72;;;;;;;20.74;51.47;101184.41;1670469;82;21133;-60
2021/04/25 01:22:26;;;;;;;1.65;1.45;;;;;;;20.73;51.46;101180.00;1671623;84;21176;-61
2021/04/25 01:24:53;;;;;;;1.62;1.40;;;;;;;20.72;51.42;101176.97;1670126;84;21170;-60
2021/04/25 01:27:20;;;;;;;2.25;1.42;;;;;;;20.69;51.42;101174.28;1671316;84;21643;-61
2021/04/25 01:29:47;;;;;;;2.22;1.50;;;;;;;20.69;51.41;101175.66;1670824;84;21177;-60
2021/04/25 01:32:13;;;;;;;2.92;1.67;;;;;;;20.67;51.39;101166.84;1669910;83;21217;-60
2021/04/25 01:34:40;;;;;;;1.77;1.40;;;;;;;20.66;51.38;101169.94;1669112;84;21583;-61
2021/04/25 01:37:06;;;;;;;1.45;1.22;;;;;;;20.66;51.38;101161.64;1680345;84;21234;-60
2021/04/25 01:39:33;;;;;;;3.25;1.52;;;;;;;20.65;51.35;101170.50;1683170;83;21608;-61
2021/04/25 01:41:59;;;;;;;2.72;1.60;;;;;;;20.65;51.34;101164.14;1686580;83;21136;-60
2021/04/25 01:44:26;;;;;;;2.95;1.65;;;;;;;20.64;51.35;101162.50;1683310;83;21198;-61
2021/04/25 01:46:52;;;;;;;2.52;1.62;;;;;;;20.65;51.32;101162.77;1680681;83;21262;-60
2021/04/25 01:49:19;;;;;;;2.50;1.60;;;;;;;20.64;51.32;101157.80;1657275;85;21279;-61
2021/04/25 01:51:45;;;;;;;1.87;1.40;;;;;;;20.65;51.30;101161.38;1684047;83;21268;-61
2021/04/25 01:54:12;;;;;;;2.65;1.65;;;;;;;20.64;51.27;101154.20;1684435;83;21186;-61
2021/04/25 01:56:38;;;;;;;2.10;1.40;;;;;;;20.62;51.26;101160.06;1654813;85;21206;-60
2021/04/25 01:59:05;;;;;;;2.40;1.70;;;;;;;20.61;51.25;101155.66;1694097;83;21187;-61
2021/04/25 02:01:32;;;;;;;3.52;2.33;;;;;;;20.60;51.23;101160.92;1700769;83;21217;-61
2021/04/25 02:03:59;;;;;;;2.22;1.40;;;;;;;20.59;51.22;101162.60;1700218;83;21577;-61
2021/04/25 02:06:26;;;;;;;2.02;1.40;;;;;;;20.58;51.19;101166.52;1655536;85;21170;-59
2021/04/25 02:08:52;;;;;;;2.35;1.60;;;;;;;20.55;51.18;101166.55;1653404;84;21231;-61
2021/04/25 02:11:19;;;;;;;2.37;1.45;;;;;;;20.55;51.18;101159.64;1686852;83;21109;-60
2021/04/25 02:13:45;;;;;;;2.35;1.55;;;;;;;20.55;51.18;101163.78;1685390;83;21182;-60
2021/04/25 02:16:13;;;;;;;2.52;1.42;;;;;;;20.55;51.17;101167.94;1686610;83;22186;-61
2021/04/25 02:18:39;;;;;;;3.52;1.92;;;;;;;20.55;51.14;101171.26;1686187;83;21231;-61
2021/04/25 02:21:06;;;;;;;2.67;1.65;;;;;;;20.53;51.14;101170.20;1685538;83;21157;-61
2021/04/25 02:23:32;;;;;;;2.30;1.40;;;;;;;20.54;51.13;101172.41;1685366;83;21431;-60
2021/04/25 02:25:59;;;;;;;2.62;1.60;;;;;;;20.54;51.11;101175.96;1684951;83;21138;-60
2021/04/25 02:28:25;;;;;;;2.22;1.70;;;;;;;20.53;51.08;101171.59;1685439;83;21217;-61
2021/04/25 02:30:52;;;;;;;2.22;1.72;;;;;;;20.52;51.08;101178.23;1684538;83;21240;-62
2021/04/25 02:33:18;;;;;;;5.28;2.75;;;;;;;20.51;51.07;101175.20;1653138;85;21138;-61
2021/04/25 02:35:45;;;;;;;2.60;1.80;;;;;;;20.50;51.06;101174.94;1651308;84;22310;-60
2021/04/25 02:38:12;;;;;;;2.30;1.47;;;;;;;20.48;51.04;101178.03;1683169;83;21175;-61
2021/04/25 02:40:39;;;;;;;1.67;1.40;;;;;;;20.47;51.03;101177.77;1690692;83;21230;-61
2021/04/25 02:43:05;;;;;;;3.50;2.08;;;;;;;20.46;51.02;101173.92;1684623;84;21253;-60
2021/04/25 02:45:32;;;;;;;2.47;1.92;;;;;;;20.45;51.02;101176.45;1683817;83;21163;-60
2021/04/25 02:48:05;;;;;;;2.77;1.80;;;;;;;20.45;51.02;101183.36;1679435;83;21147;-60
2021/04/25 02:50:35;;;;;;;2.00;1.52;;;;;;;20.45;50.99;101175.08;1651738;85;21187;-61
2021/04/25 02:53:02;;;;;;;4.13;2.13;;;;;;;20.43;50.99;101178.69;1648739;85;21257;-60
2021/04/25 02:55:29;;;;;;;4.30;1.90;;;;;;;20.44;50.98;101177.58;1689843;83;21926;-60
2021/04/25 02:57:55;;;;;;;2.30;1.52;;;;;;;20.43;50.97;101175.93;1681482;83;21214;-60
2021/04/25 03:00:25;;;;;;;3.00;1.80;;;;;;;20.43;50.94;101184.22;1675723;83;21369;-60
2021/04/25 03:02:51;;;;;;;3.13;1.90;;;;;;;20.43;50.91;101180.89;1673559;84;21135;-61
2021/04/25 03:05:18;;;;;;;2.92;1.87;;;;;;;20.42;50.90;101178.43;1677368;83;21475;-60
2021/04/25 03:07:45;;;;;;;3.12;1.95;;;;;;;20.42;50.90;101179.81;1678098;83;21146;-61
2021/04/25 03:10:13;;;;;;;2.17;1.67;;;;;;;20.40;50.88;101180.70;1677175;84;21248;-61
2021/04/25 03:12:39;;;;;;;5.80;2.15;;;;;;;20.39;50.86;101178.49;1648107;85;21151;-62
2021/04/25 03:15:08;;;;;;;3.52;2.20;;;;;;;20.38;50.86;101173.27;1676029;83;21694;-61
2021/04/25 03:17:34;;;;;;;4.15;2.27;;;;;;;20.36;50.82;101169.44;1677933;83;22190;-61
2021/04/25 03:20:02;;;;;;;3.02;1.98;;;;;;;20.34;50.82;101174.45;1679748;83;21240;-61
2021/04/25 03:22:29;;;;;;;2.37;1.82;;;;;;;20.35;50.84;101182.17;1677640;84;21169;-60
2021/04/25 03:24:55;;;;;;;2.80;2.00;;;;;;;20.34;50.82;101181.35;1679300;83;21590;-61
2021/04/25 03:27:22;;;;;;;3.35;2.00;;;;;;;20.35;50.81;101175.27;1678412;83;21160;-62
2021/04/25 03:29:48;;;;;;;2.90;1.67;;;;;;;20.34;50.79;101176.38;1679680;82;23537;-60
2021/04/25 03:32:15;;;;;;;2.75;2.20;;;;;;;20.32;50.78;101179.48;1681286;84;21232;-60
2021/04/25 03:34:41;;;;;;;2.75;2.05;;;;;;;20.34;50.78;101181.91;1676800;83;21161;-60
2021/04/25 03:37:08;;;;;;;3.95;2.10;;;;;;;20.33;50.76;101183.03;1673254;84;21170;-61
2021/04/25 03:39:34;;;;;;;2.95;1.92;;;;;;;20.32;50.74;101185.56;1670248;83;21214;-60
2021/04/25 03:42:01;;;;;;;3.08;2.22;;;;;;;20.32;50.73;101193.30;1668660;84;21169;-60
2021/04/25 03:44:27;;;;;;;2.98;2.37;;;;;;;20.31;50.71;101194.41;1670917;84;21884;-60
2021/04/25 03:46:54;;;;;;;2.87;2.08;;;;;;;20.30;50.71;101191.38;1665907;83;21231;-60
2021/04/25 03:49:21;;;;;;;3.30;1.98;;;;;;;20.30;50.70;101201.61;1669236;83;21083;-60
2021/04/25 03:51:52;;;;;;;3.40;2.37;;;;;;;20.29;50.68;101199.94;1669854;84;21193;-61
2021/04/25 03:54:18;;;;;;;3.65;2.45;;;;;;;20.28;50.66;101203.28;1668767;84;21442;-60
2021/04/25 03:56:45;;;;;;;3.35;2.33;;;;;;;20.27;50.65;101203.02;1671059;83;21166;-61
2021/04/25 03:59:11;;;;;;;3.72;2.33;;;;;;;20.28;50.64;101206.61;1670034;83;21159;-60
2021/04/25 04:01:38;;;;;;;3.33;2.12;;;;;;;20.28;50.64;101201.08;1666103;84;21255;-61
2021/04/25 04:04:05;;;;;;;3.25;2.12;;;;;;;20.27;50.62;101208.55;1670125;83;21165;-60
2021/04/25 04:06:31;;;;;;;3.20;2.30;;;;;;;20.28;50.62;101209.38;1669798;84;21278;-60
2021/04/25 04:08:58;;;;;;;4.22;2.45;;;;;;;20.29;50.59;101206.84;1665655;84;21159;-61
2021/04/25 04:11:25;;;;;;;3.30;2.05;;;;;;;20.31;50.60;101210.16;1668395;84;21564;-60
2021/04/25 04:13:51;;;;;;;4.17;2.15;;;;;;;20.32;50.58;101207.66;1669852;84;21611;-60
2021/04/25 04:16:18;;;;;;;3.52;2.35;;;;;;;20.33;50.58;101214.80;1669488;84;21191;-60
2021/04/25 04:18:44;;;;;;;3.92;2.17;;;;;;;20.36;50.55;101212.84;1670281;84;21309;-60
2021/04/25 04:21:11;;;;;;;3.15;2.20;;;;;;;20.38;50.52;101207.80;1668301;84;21238;-60
2021/04/25 04:23:37;;;;;;;4.85;2.60;;;;;;;20.41;50.50;101211.36;1672664;84;21141;-61
2021/04/25 04:26:03;;;;;;;4.67;2.33;;;;;;;20.44;50.49;101214.89;1671125;83;22167;-60
2021/04/25 04:28:30;;;;;;;2.67;2.08;;;;;;;20.45;50.43;101211.80;1669461;84;21236;-61
2021/04/25 04:30:56;;;;;;;3.00;2.02;;;;;;;20.47;50.44;101208.73;1670710;83;21289;-61
2021/04/25 04:33:23;;;;;;;3.25;2.27;;;;;;;20.50;50.40;101208.94;1669858;84;21225;-60
2021/04/25 04:35:49;;;;;;;3.17;2.30;;;;;;;20.55;50.39;101214.10;1669668;83;21171;-60
2021/04/25 04:38:15;;;;;;;3.08;2.05;;;;;;;20.58;50.37;101214.89;1670618;83;21173;-60
2021/04/25 04:40:42;;;;;;;3.55;2.27;;;;;;;20.61;50.35;101215.66;1673463;84;21146;-60
2021/04/25 04:43:08;;;;;;;3.12;2.35;;;;;;;20.62;50.33;101219.50;1670345;84;21277;-60
2021/04/25 04:45:35;;;;;;;3.83;2.25;;;;;;;20.64;50.29;101213.08;1670779;84;21263;-60
2021/04/25 04:48:02;;;;;;;3.58;2.37;;;;;;;20.68;50.28;101220.20;1669930;84;21253;-60
2021/04/25 04:50:28;;;;;;;3.67;2.30;;;;;;;20.69;50.24;101219.90;1668624;84;21173;-61
2021/04/25 04:52:55;;;;;;;4.70;2.87;;;;;;;20.72;50.22;101225.36;1669779;84;21161;-61
2021/04/25 04:55:21;;;;;;;5.35;2.47;;;;;;;20.72;50.18;101221.22;1671245;84;21278;-60
2021/04/25 04:57:48;;;;;;;4.97;2.72;;;;;;;20.74;50.16;101221.73;1686452;84;21163;-60
2021/04/25 05:00:15;;;;;;;3.52;2.55;;;;;;;20.76;50.13;101220.85;1681702;82;21206;-61
2021/04/25 05:02:41;;;;;;;3.77;2.70;;;;;;;20.77;50.11;101221.11;1673688;83;21202;-60
2021/04/25 05:05:09;;;;;;;4.25;2.65;;;;;;;20.78;50.05;101219.44;1641046;85;21176;-60
2021/04/25 05:07:35;;;;;;;4.22;2.90;;;;;;;20.79;50.04;101221.05;1683230;84;21200;-60
2021/04/25 05:10:03;;;;;;;4.12;2.50;;;;;;;20.80;50.02;101217.16;1684532;83;21187;-60
2021/04/25 05:12:30;;;;;;;4.17;2.33;;;;;;;20.83;50.00;101219.33;1672690;83;21136;-62
2021/04/25 05:14:56;;;;;;;4.17;2.67;;;;;;;20.84;50.00;101218.18;1669881;84;21457;-60
2021/04/25 05:17:22;;;;;;;4.00;2.37;;;;;;;20.87;49.97;101220.34;1670868;84;21134;-61
2021/04/25 05:19:49;;;;;;;2.75;2.20;;;;;;;20.88;49.97;101220.58;1671914;84;21616;-60
2021/04/25 05:22:15;;;;;;;3.45;2.20;;;;;;;20.90;49.95;101225.25;1669991;83;21187;-60
2021/04/25 05:24:42;;;;;;;3.55;2.35;;;;;;;20.92;49.95;101225.75;1669903;84;21106;-61
2021/04/25 05:27:08;;;;;;;3.40;2.30;;;;;;;20.94;49.93;101229.03;1673518;83;21159;-61
2021/04/25 05:29:35;;;;;;;3.72;2.33;;;;;;;20.95;49.91;101221.00;1671646;84;21209;-61
2021/04/25 05:32:02;;;;;;;4.42;2.55;;;;;;;20.98;49.89;101224.52;1672474;84;22168;-60
2021/04/25 05:34:29;;;;;;;3.67;2.42;;;;;;;21.01;49.87;101226.39;1672193;84;21554;-60
2021/04/25 05:36:55;;;;;;;3.42;2.47;;;;;;;21.02;49.83;101230.25;1669900;84;21157;-61
2021/04/25 05:39:21;;;;;;;4.92;2.90;;;;;;;21.02;49.81;101226.09;1673254;83;21183;-60
2021/04/25 05:41:48;;;;;;;2.62;2.10;;;;;;;21.05;49.80;101232.38;1669866;83;21269;-61
2021/04/25 05:44:14;;;;;;;3.83;2.50;;;;;;;21.07;49.80;101234.85;1671289;84;22196;-61
2021/04/25 05:46:40;;;;;;;3.55;2.27;;;;;;;21.09;49.76;101236.76;1670146;84;21167;-60
2021/04/25 05:49:07;;;;;;;4.42;2.62;;;;;;;21.09;49.76;101236.16;1669853;84;21237;-61
2021/04/25 05:51:33;;;;;;;4.72;2.37;;;;;;;21.11;49.76;101233.10;1671393;83;21237;-61
2021/04/25 05:54:00;;;;;;;3.33;2.27;;;;;;;21.13;49.75;101235.83;1675452;84;21222;-60
2021/04/25 05:56:27;;;;;;;4.55;2.87;;;;;;;21.14;49.74;101232.50;1671029;84;21366;-60
2021/04/25 05:58:54;;;;;;;3.72;2.40;;;;;;;21.15;49.73;101227.23;1675283;83;21056;-60
2021/04/25 06:01:20;;;;;;;3.65;2.50;;;;;;;21.16;49.72;101235.23;1670493;84;21395;-60
2021/04/25 06:03:47;;;;;;;3.72;2.35;;;;;;;21.17;49.71;101229.13;1670709;84;21183;-61
2021/04/25 06:06:14;;;;;;;3.75;2.52;;;;;;;21.18;49.71;101232.13;1671948;83;21248;-61
2021/04/25 06:08:40;;;;;;;3.42;2.17;;;;;;;21.18;49.71;101230.19;1669515;84;21203;-60
2021/04/25 06:11:07;;;;;;;3.52;2.22;;;;;;;21.20;49.70;101227.12;1669368;84;21176;-61
2021/04/25 06:13:33;;;;;;;3.72;2.67;;;;;;;21.21;49.69;101230.15;1670092;83;21239;-61
2021/04/25 06:15:59;;;;;;;3.65;2.40;;;;;;;21.21;49.70;101223.23;1672759;84;21558;-61
2021/04/25 06:18:26;;;;;;;4.10;2.75;;;;;;;21.23;49.67;101225.92;1669245;84;21251;-60
2021/04/25 06:20:53;;;;;;;3.87;2.72;;;;;;;21.23;49.66;101222.34;1669957;84;21804;-60
2021/04/25 06:23:20;;;;;;;4.15;2.45;;;;;;;21.25;49.65;101215.94;1669883;84;21166;-61
2021/04/25 06:25:47;;;;;;;3.60;2.45;;;;;;;21.24;49.62;101217.89;1669089;84;21219;-60
2021/04/25 06:28:14;;;;;;;4.35;2.58;;;;;;;21.26;49.61;101212.05;1669307;84;21356;-61
2021/04/25 06:30:41;;;;;;;3.98;2.58;;;;;;;21.26;49.60;101205.12;1670776;83;21191;-60
2021/04/25 06:33:07;;;;;;;3.50;2.72;;;;;;;21.27;49.59;101206.18;1672560;83;21249;-61
2021/04/25 06:35:33;;;;;;;4.78;2.62;;;;;;;21.28;49.62;101198.14;1669782;84;21100;-60
2021/04/25 06:38:00;;;;;;;3.22;2.27;;;;;;;21.29;49.59;101197.02;1672672;82;21138;-60
2021/04/25 06:40:27;;;;;;;3.50;2.22;;;;;;;21.30;49.58;101190.92;1676336;83;21627;-61
2021/04/25 06:42:53;;;;;;;3.62;2.52;;;;;;;21.32;49.59;101190.84;1672954;84;21645;-59
2021/04/25 06:45:21;;;;;;;3.70;2.83;;;;;;;21.32;49.56;101184.48;1675356;83;21855;-60
2021/04/25 06:47:48;;;;;;;4.35;2.60;;;;;;;21.34;49.56;101191.93;1645449;85;21530;-60
2021/04/25 06:50:15;;;;;;;4.10;2.80;;;;;;;21.35;49.54;101196.31;1687760;83;21191;-60
2021/04/25 06:52:43;;;;;;;4.30;3.05;;;;;;;21.35;49.54;101197.13;1679961;84;21215;-60
2021/04/25 06:55:11;;;;;;;3.80;2.55;;;;;;;21.37;49.52;101199.59;1681792;84;21653;-60
2021/04/25 06:57:38;;;;;;;4.20;2.85;;;;;;;21.37;49.50;101203.19;1678128;84;21269;-60
2021/04/25 07:00:06;;;;;;;4.30;2.90;;;;;;;21.37;49.50;101195.45;1677147;83;21216;-61
2021/04/25 07:02:33;;;;;;;6.92;4.55;;;;;;;21.38;49.47;101194.32;1672846;84;21193;-60
2021/04/25 07:05:01;;;;;;;5.47;3.95;;;;;;;21.36;49.19;101196.01;1645460;85;21224;-61
2021/04/25 07:07:28;;;;;;;7.42;4.10;;;;;;;21.34;48.76;101199.64;1680228;82;21220;-61
2021/04/25 07:09:54;;;;;;;7.03;4.25;;;;;;;21.35;48.50;101200.46;1678325;82;21302;-60
2021/04/25 07:12:21;;;;;;;7.28;4.95;;;;;;;21.35;48.14;101199.08;1681137;82;21173;-60
2021/04/25 07:14:50;;;;;;;14.55;8.50;;;;;;;21.34;47.69;101203.00;1678298;84;21166;-60
2021/04/25 07:17:27;;;;;;;7.78;4.62;;;;;;;21.32;47.35;101197.77;1693116;82;21411;-60
2021/04/25 07:19:56;;;;;;;6.35;4.00;;;;;;;21.32;47.18;101201.09;1653707;85;21253;-61
2021/04/25 07:22:23;;;;;;;4.00;3.58;;;;;;;21.31;47.08;101198.06;1682499;84;22149;-61
2021/04/25 07:24:49;;;;;;;5.28;3.35;;;;;;;21.30;46.82;101208.91;1691562;82;21187;-62
2021/04/25 07:27:18;;;;;;;4.03;3.15;;;;;;;21.29;46.67;101204.50;1677104;82;21047;-60
2021/04/25 07:29:45;;;;;;;4.90;3.40;;;;;;;21.28;46.63;101200.09;1685909;82;21207;-61
2021/04/25 07:32:12;;;;;;;5.08;3.85;;;;;;;21.27;46.45;101197.88;1651418;85;21253;-61
2021/04/25 07:34:38;;;;;;;4.15;3.40;;;;;;;21.27;46.26;101202.59;1678179;84;22212;-61
2021/04/25 07:37:08;;;;;;;4.42;3.30;;;;;;;21.26;46.12;101200.98;1689725;83;21653;-60
2021/04/25 07:39:35;;;;;;;4.85;3.62;;;;;;;21.25;45.99;101197.39;1673285;84;21209;-61
2021/04/25 07:42:02;;;;;;;3.75;3.22;;;;;;;21.24;45.81;101196.31;1670026;84;21151;-60
2021/04/25 07:44:28;;;;;;;5.30;3.08;;;;;;;21.22;45.71;101191.08;1669551;85;21613;-62
2021/04/25 07:46:56;;;;;;;4.33;2.98;;;;;;;21.22;45.62;101185.54;1679230;84;21228;-60
2021/04/25 07:49:22;;;;;;;4.40;2.90;;;;;;;21.22;45.58;101186.10;1669184;85;21197;-60
2021/04/25 07:51:49;;;;;;;3.52;2.80;;;;;;;21.22;45.46;101177.80;1668829;85;21253;-61
2021/04/25 07:54:15;;;;;;;3.70;2.98;;;;;;;21.22;45.45;101175.03;1669138;84;21187;-60
2021/04/25 07:56:42;;;;;;;3.83;2.72;;;;;;;21.21;45.42;101175.63;1670764;84;21161;-62
2021/04/25 07:59:08;;;;;;;4.95;2.47;;;;;;;21.21;45.36;101172.04;1672112;84;21735;-60
2021/04/25 08:01:35;;;;;;;7.35;2.52;;;;;;;21.23;45.16;101167.81;1669205;85;21304;-63
2021/04/25 08:04:01;;;;;;;5.90;2.42;;;;;;;21.24;44.96;101168.07;1664204;84;21235;-67
2021/04/25 08:06:32;;;;;;;4.35;2.55;;;;;;;21.25;44.78;101162.80;1669356;83;21206;-62
2021/04/25 08:09:18;;;;;;;3.85;2.10;;;;;;;21.25;44.76;101157.27;1649158;84;21222;-62
2021/04/25 08:11:45;;;;;;;3.67;2.37;;;;;;;21.27;44.75;101161.91;1666474;82;21227;-62
2021/04/25 08:14:11;;;;;;;2.90;2.10;;;;;;;21.29;44.59;101163.80;1669223;84;21216;-62
2021/04/25 08:16:37;;;;;;;3.20;2.00;;;;;;;21.28;44.54;101162.73;1669424;84;21586;-63
2021/04/25 08:19:04;;;;;;;4.22;1.85;;;;;;;21.28;44.41;101162.16;1674855;84;21195;-62
2021/04/25 08:21:32;;;;;;;2.77;2.10;;;;;;;21.27;44.36;101159.70;1671647;84;21230;-63
2021/04/25 08:23:59;;;;;;;2.65;1.98;;;;;;;21.26;44.30;101163.03;1664208;84;22116;-64
2021/04/25 08:26:26;;;;;;;3.35;1.90;;;;;;;21.25;44.26;101156.44;1672865;83;21146;-61
2021/04/25 08:28:52;;;;;;;2.75;1.82;;;;;;;21.24;44.12;101152.85;1670036;84;21227;-63
2021/04/25 08:31:19;;;;;;;3.75;1.98;;;;;;;21.24;44.03;101155.63;1669720;84;21030;-63
2021/04/25 08:33:45;;;;;;;2.33;1.82;;;;;;;21.23;43.97;101151.77;1670141;84;21242;-61
2021/04/25 08:36:14;;;;;;;3.40;1.95;;;;;;;21.24;43.80;101145.11;1678329;84;21313;-63
2021/04/25 08:38:41;;;;;;;3.27;1.60;;;;;;;21.24;43.66;101139.02;1675126;84;21208;-62
2021/04/25 08:41:09;;;;;;;1.98;1.60;;;;;;;21.24;43.60;101141.78;1686398;83;21205;-61
2021/04/25 08:43:35;;;;;;;3.02;1.55;;;;;;;21.25;43.53;101134.30;1687647;83;21225;-62
2021/04/25 08:46:02;;;;;;;2.15;1.35;;;;;;;21.25;43.50;101140.66;1686434;83;21158;-63
2021/04/25 08:48:29;;;;;;;3.87;1.80;;;;;;;21.24;43.42;101139.58;1683332;83;21234;-62
2021/04/25 08:50:58;;;;;;;3.47;2.10;;;;;;;21.24;43.29;101135.43;1659140;85;21208;-63
2021/04/25 08:53:24;;;;;;;2.10;1.67;;;;;;;21.24;43.21;101137.63;1687888;82;21195;-62
2021/04/25 08:55:51;;;;;;;3.55;1.67;;;;;;;21.23;43.11;101130.45;1684523;83;21155;-64
2021/04/25 08:58:18;;;;;;;2.37;1.70;;;;;;;21.24;42.99;101130.72;1684396;83;21191;-65
2021/04/25 09:00:45;;;;;;;2.10;1.42;;;;;;;21.24;42.87;101127.12;1683703;83;21285;-61
2021/04/25 09:03:11;;;;;;;2.60;1.70;;;;;;;21.25;42.83;101121.29;1689841;83;21573;-62
2021/04/25 09:05:38;;;;;;;3.52;1.85;;;;;;;21.24;42.73;101117.44;1693943;82;21234;-63
2021/04/25 09:08:06;;;;;;;3.30;1.80;;;;;;;21.25;42.62;101117.70;1691633;82;21202;-64
2021/04/25 09:10:37;;;;;;;2.42;1.80;;;;;;;21.26;42.54;101115.19;1683313;83;21602;-63
2021/04/25 09:13:18;;;;;;;2.85;1.42;;;;;;;21.26;42.45;101111.05;1690844;83;22130;-63
2021/04/25 09:15:44;;;;;;;4.67;2.90;;;;;;;21.27;42.40;101107.13;1691594;83;21188;-63
2021/04/25 09:18:11;;;;;;;7.72;4.70;;;;;;;21.28;42.29;101100.46;1682622;83;21189;-63
2021/04/25 09:20:46;;;;;;;8.63;4.87;;;;;;;21.29;42.21;101104.87;1683317;83;21597;-62
2021/04/25 09:23:25;;;;;;;10.65;6.78;;;;;;;21.30;42.12;101094.84;1686971;83;21170;-63
2021/04/25 09:26:05;;;;;;;17.50;9.30;;;;;;;21.32;42.00;101095.92;1684604;83;21214;-64
2021/04/25 09:28:33;;;;;;;;;;;;;;;21.33;41.92;101089.27;1681625;83;21196;-62
2021/04/25 09:31:04;;;;;;;16.48;8.30;;;;;;;21.34;41.90;101082.61;1683217;83;20226;-68
2021/04/25 09:33:57;;;;;;;11.88;6.50;;;;;;;21.34;41.92;101088.93;1682671;83;21599;-63
2021/04/25 09:36:28;;;;;;;12.33;6.33;;;;;;;21.37;41.82;101077.81;1679107;83;21197;-62
2021/04/25 09:39:13;;;;;;;11.48;5.72;;;;;;;21.36;41.77;101072.02;1681089;82;21237;-63
2021/04/25 09:41:40;;;;;;;10.98;5.62;;;;;;;21.37;41.75;101080.58;1669362;83;21217;-62
2021/04/25 09:44:07;;;;;;;8.03;5.05;;;;;;;21.35;41.71;101068.43;1667217;84;21283;-65
2021/04/25 09:46:58;;;;;;;9.35;5.42;;;;;;;21.36;41.71;101067.30;1664889;84;21249;-63
2021/04/25 09:49:49;;;;;;;7.08;4.65;;;;;;;21.39;41.74;101057.54;1667692;84;21264;-63
2021/04/25 09:52:37;;;;;;;6.80;4.50;;;;;;;21.39;41.76;101053.39;1667841;84;21258;-64
2021/04/25 09:55:24;;;;;;;8.08;3.98;;;;;;;21.38;41.76;101060.08;1644795;83;21254;-64
2021/04/25 09:58:05;;;;;;;5.65;3.33;;;;;;;21.40;41.79;101057.80;1664552;83;21245;-64
2021/04/25 10:00:47;;;;;;;6.03;3.55;;;;;;;21.40;41.75;101046.72;1635820;85;21712;-64
2021/04/25 10:03:10;;;;;;;6.85;2.95;;;;;;;21.40;41.69;101035.66;1668295;84;21251;-64
2021/04/25 10:06:00;;;;;;;6.08;3.47;;;;;;;21.40;41.60;101038.42;1664176;83;21660;-64
2021/04/25 10:08:35;;;;;;;5.70;3.27;;;;;;;21.40;41.52;101030.94;1663972;83;21265;-64
2021/04/25 10:11:05;;;;;;;4.28;2.95;;;;;;;21.40;41.45;101031.50;1665760;83;21174;-64
2021/04/25 10:13:34;;;;;;;4.58;2.90;;;;;;;21.40;41.38;101025.97;1666854;84;21246;-64
2021/04/25 10:16:01;;;;;;;4.35;2.60;;;;;;;21.39;41.34;101019.61;1666897;84;21250;-65
2021/04/25 10:18:27;;;;;;;4.78;2.85;;;;;;;21.38;41.27;101022.16;1666934;84;21677;-65
2021/04/25 10:20:55;;;;;;;4.60;3.30;;;;;;;21.39;41.22;101009.92;1666740;83;21211;-65
2021/04/25 10:23:23;;;;;;;8.05;3.05;;;;;;;21.39;41.18;101007.16;1667372;84;21624;-64
2021/04/25 10:25:50;;;;;;;4.65;2.65;;;;;;;21.42;41.13;100996.03;1665184;83;21533;-67
2021/04/25 10:28:44;;;;;;;4.70;3.10;;;;;;;21.45;41.11;101002.87;1661894;84;21243;-62
2021/04/25 10:31:14;;;;;;;5.17;2.92;;;;;;;21.46;41.14;100997.59;1663897;83;21243;-62
2021/04/25 10:34:04;;;;;;;7.00;2.57;;;;;;;21.49;41.15;100982.54;1667980;84;21202;-65
2021/04/25 10:36:54;;;;;;;3.90;2.70;;;;;;;21.52;41.11;100978.30;1669430;84;21257;-64
2021/04/25 10:39:50;;;;;;;6.17;2.77;;;;;;;21.54;41.10;100981.02;1669691;83;21158;-63
2021/04/25 10:42:33;;;;;;;7.05;3.30;;;;;;;21.55;41.10;100977.13;1676241;83;21653;-64
2021/04/25 10:45:06;;;;;;;6.67;3.30;;;;;;;21.57;41.12;100969.30;1674027;83;21702;-63
2021/04/25 10:47:40;;;;;;;32.10;18.85;;;;;;;21.61;41.15;100970.85;1673789;84;21499;-64
2021/04/25 10:50:18;;;;;;;49.13;30.02;;;;;;;21.61;41.20;100972.23;1674856;83;21156;-61
2021/04/25 10:52:50;;;;;;;69.62;41.20;;;;;;;21.64;41.22;100968.84;1676277;83;21197;-63
2021/04/25 10:55:29;;;;;;;72.65;44.38;;;;;;;21.64;41.25;100968.25;1680116;83;21574;-64
2021/04/25 10:58:05;;;;;;;79.20;44.75;;;;;;;21.65;41.28;100964.36;1671809;83;21218;-63
2021/04/25 11:00:44;;;;;;;69.55;40.70;;;;;;;21.66;41.31;100961.84;1672267;84;21185;-64
2021/04/25 11:03:18;;;;;;;67.50;39.48;;;;;;;21.68;41.31;100951.84;1675441;83;21633;-62
2021/04/25 11:05:49;;;;;;;58.45;34.60;;;;;;;21.69;41.30;100956.22;1656028;83;21631;-61
2021/04/25 11:08:32;;;;;;;50.83;30.40;;;;;;;21.69;41.32;100957.03;1672407;83;21237;-61
2021/04/25 11:11:11;;;;;;;44.60;27.10;;;;;;;21.71;41.31;100956.16;1673252;83;22413;-62
2021/04/25 11:13:47;;;;;;;37.35;20.90;;;;;;;21.72;41.35;100952.83;1672801;82;21259;-60
2021/04/25 11:16:20;;;;;;;28.70;17.95;;;;;;;21.74;41.28;100950.53;1670298;83;21290;-62
2021/04/25 11:18:59;;;;;;;24.55;15.38;;;;;;;21.76;41.19;100948.27;1669213;83;21224;-61
2021/04/25 11:21:33;;;;;;;22.13;14.35;;;;;;;21.77;41.10;100941.01;1673101;83;21288;-65
2021/04/25 11:24:06;;;;;;;21.35;12.85;;;;;;;21.79;40.98;100944.28;1673976;83;21669;-61
2021/04/25 11:26:57;;;;;;;19.05;12.05;;;;;;;21.82;40.87;100942.81;1643847;84;21230;-59
2021/04/25 11:29:42;;;;;;;18.40;10.65;;;;;;;21.83;40.83;100935.58;1666197;83;21200;-61
2021/04/25 11:32:11;;;;;;;15.35;9.48;;;;;;;21.85;40.80;100938.04;1676368;83;21233;-61